createdAt,value
2017-12-23T00:00:05.587Z,0.00
2017-12-23T00:01:05.525Z,4.00
2017-12-23T00:02:05.470Z,0.00
2017-12-23T00:03:05.408Z,0.00
2017-12-23T00:04:05.340Z,0.00
2017-12-23T00:05:05.279Z,0.00
2017-12-23T00:06:05.220Z,0.00
2017-12-23T00:07:05.156Z,0.00
2017-12-23T00:08:05.096Z,0.00
2017-12-23T00:09:05.031Z,0.00
2017-12-23T00:10:04.970Z,0.00
2017-12-23T00:11:04.907Z,0.00
2017-12-23T00:12:04.853Z,0.00
2017-12-23T00:13:04.788Z,0.00
2017-12-23T00:14:04.722Z,0.00
2017-12-23T00:15:04.663Z,0.00
2017-12-23T00:16:04.601Z,0.00
2017-12-23T00:17:04.514Z,0.00
2017-12-23T00:18:04.455Z,0.00
2017-12-23T00:19:04.393Z,0.00
2017-12-23T00:20:04.332Z,4.00
2017-12-23T00:21:04.270Z,4.00
2017-12-23T00:22:04.209Z,0.00
2017-12-23T00:23:04.146Z,4.00
2017-12-23T00:24:04.085Z,4.00
2017-12-23T00:25:04.024Z,4.00
2017-12-23T00:26:03.963Z,0.00
2017-12-23T00:27:03.901Z,0.00
2017-12-23T00:28:03.846Z,0.00
2017-12-23T00:29:03.779Z,0.00
2017-12-23T00:30:03.719Z,0.00
2017-12-23T00:31:03.655Z,0.00
2017-12-23T00:32:03.595Z,4.00
2017-12-23T00:33:03.540Z,0.00
2017-12-23T00:34:03.472Z,0.00
2017-12-23T00:35:03.409Z,0.00
2017-12-23T00:36:03.350Z,4.00
2017-12-23T00:37:03.288Z,4.00
2017-12-23T00:38:03.226Z,0.00
2017-12-23T00:39:03.166Z,0.00
2017-12-23T00:40:03.104Z,4.00
2017-12-23T00:41:03.043Z,4.00
2017-12-23T00:42:02.981Z,0.00
2017-12-23T00:43:02.921Z,4.00
2017-12-23T00:44:02.860Z,0.00
2017-12-23T00:45:02.798Z,0.00
2017-12-23T00:46:02.736Z,0.00
2017-12-23T00:47:02.682Z,0.00
2017-12-23T00:48:02.612Z,0.00
2017-12-23T00:49:02.552Z,0.00
2017-12-23T00:50:02.490Z,4.00
2017-12-23T00:51:02.429Z,0.00
2017-12-23T00:52:02.367Z,0.00
2017-12-23T00:53:02.306Z,0.00
2017-12-23T00:54:02.247Z,0.00
2017-12-23T00:55:02.183Z,0.00
2017-12-23T00:56:02.124Z,0.00
2017-12-23T00:57:02.063Z,0.00
2017-12-23T00:58:02.002Z,0.00
2017-12-23T00:59:01.940Z,0.00
2017-12-23T01:00:01.878Z,0.00
2017-12-23T01:01:01.814Z,0.00
2017-12-23T01:02:01.754Z,0.00
2017-12-23T01:03:01.694Z,0.00
2017-12-23T01:04:01.635Z,0.00
2017-12-23T01:05:01.570Z,0.00
2017-12-23T01:06:01.508Z,0.00
2017-12-23T01:07:01.447Z,0.00
2017-12-23T01:08:01.386Z,0.00
2017-12-23T01:09:01.324Z,0.00
2017-12-23T01:10:01.262Z,0.00
2017-12-23T01:11:01.203Z,0.00
2017-12-23T01:12:01.141Z,0.00
2017-12-23T01:13:01.077Z,0.00
2017-12-23T01:14:01.018Z,0.00
2017-12-23T01:15:00.959Z,0.00
2017-12-23T01:16:00.895Z,0.00
2017-12-23T01:17:00.833Z,0.00
2017-12-23T01:18:00.773Z,0.00
2017-12-23T01:19:00.708Z,0.00
2017-12-23T01:20:00.650Z,0.00
2017-12-23T01:21:00.587Z,0.00
2017-12-23T01:22:00.530Z,0.00
2017-12-23T01:23:00.466Z,0.00
2017-12-23T01:24:00.403Z,0.00
2017-12-23T01:25:00.343Z,0.00
2017-12-23T01:26:00.283Z,0.00
2017-12-23T01:27:00.219Z,0.00
2017-12-23T01:28:00.159Z,0.00
2017-12-23T01:29:00.099Z,0.00
2017-12-23T01:30:00.039Z,0.00
2017-12-23T01:30:59.976Z,0.00
2017-12-23T01:31:59.914Z,0.00
2017-12-23T01:32:59.849Z,0.00
2017-12-23T01:33:59.790Z,0.00
2017-12-23T01:34:59.727Z,0.00
2017-12-23T01:35:59.667Z,0.00
2017-12-23T01:36:59.607Z,0.00
2017-12-23T01:37:59.545Z,0.00
2017-12-23T01:38:59.483Z,0.00
2017-12-23T01:39:59.425Z,0.00
2017-12-23T01:40:59.361Z,0.00
2017-12-23T01:41:59.298Z,0.00
2017-12-23T01:42:59.237Z,0.00
2017-12-23T01:43:59.175Z,0.00
2017-12-23T01:44:59.117Z,0.00
2017-12-23T01:45:59.067Z,0.00
2017-12-23T01:46:58.993Z,0.00
2017-12-23T01:47:58.942Z,0.00
2017-12-23T01:48:58.868Z,0.00
2017-12-23T01:49:58.816Z,0.00
2017-12-23T01:50:58.746Z,0.00
2017-12-23T01:51:58.684Z,0.00
2017-12-23T01:52:58.622Z,0.00
2017-12-23T01:53:58.560Z,0.00
2017-12-23T01:54:58.502Z,0.00
2017-12-23T01:55:58.441Z,0.00
2017-12-23T01:56:58.376Z,0.00
2017-12-23T01:57:58.313Z,0.00
2017-12-23T01:58:58.252Z,0.00
2017-12-23T01:59:58.195Z,0.00
2017-12-23T02:00:58.133Z,0.00
2017-12-23T02:01:58.066Z,0.00
2017-12-23T02:02:58.010Z,0.00
2017-12-23T02:03:57.944Z,0.00
2017-12-23T02:04:57.882Z,0.00
2017-12-23T02:05:57.821Z,0.00
2017-12-23T02:06:57.761Z,0.00
2017-12-23T02:07:57.702Z,0.00
2017-12-23T02:08:57.633Z,4.00
2017-12-23T02:09:57.573Z,0.00
2017-12-23T02:10:57.511Z,0.00
2017-12-23T02:11:57.450Z,0.00
2017-12-23T02:12:57.388Z,0.00
2017-12-23T02:13:57.327Z,0.00
2017-12-23T02:14:57.264Z,0.00
2017-12-23T02:15:57.201Z,0.00
2017-12-23T02:16:57.141Z,0.00
2017-12-23T02:17:57.077Z,0.00
2017-12-23T02:18:57.016Z,0.00
2017-12-23T02:19:56.956Z,0.00
2017-12-23T02:20:56.892Z,0.00
2017-12-23T02:21:56.828Z,0.00
2017-12-23T02:22:56.766Z,0.00
2017-12-23T02:23:56.705Z,0.00
2017-12-23T02:24:56.643Z,0.00
2017-12-23T02:25:56.582Z,0.00
2017-12-23T02:26:56.524Z,0.00
2017-12-23T02:27:56.459Z,0.00
2017-12-23T02:28:56.398Z,0.00
2017-12-23T02:29:56.335Z,0.00
2017-12-23T02:30:56.327Z,0.00
2017-12-23T02:31:56.211Z,0.00
2017-12-23T02:32:56.152Z,0.00
2017-12-23T02:33:56.086Z,0.00
2017-12-23T02:34:56.028Z,0.00
2017-12-23T02:35:55.963Z,0.00
2017-12-23T02:36:55.912Z,0.00
2017-12-23T02:37:55.837Z,4.00
2017-12-23T02:38:55.778Z,0.00
2017-12-23T02:39:55.722Z,4.00
2017-12-23T02:40:55.650Z,0.00
2017-12-23T02:41:55.592Z,0.00
2017-12-23T02:42:55.536Z,0.00
2017-12-23T02:43:55.466Z,0.00
2017-12-23T02:44:55.405Z,0.00
2017-12-23T02:45:55.341Z,0.00
2017-12-23T02:46:55.279Z,0.00
2017-12-23T02:47:55.222Z,0.00
2017-12-23T02:48:55.155Z,0.00
2017-12-23T02:49:55.091Z,0.00
2017-12-23T02:50:55.034Z,0.00
2017-12-23T02:51:54.968Z,0.00
2017-12-23T02:52:54.906Z,0.00
2017-12-23T02:53:54.847Z,0.00
2017-12-23T02:54:54.784Z,0.00
2017-12-23T02:55:54.720Z,0.00
2017-12-23T02:56:54.659Z,0.00
2017-12-23T02:57:54.602Z,4.00
2017-12-23T02:58:54.549Z,0.00
2017-12-23T02:59:54.474Z,4.00
2017-12-23T03:00:54.409Z,0.00
2017-12-23T03:01:54.350Z,0.00
2017-12-23T03:02:54.284Z,0.00
2017-12-23T03:03:54.226Z,0.00
2017-12-23T03:04:54.162Z,0.00
2017-12-23T03:05:54.099Z,0.00
2017-12-23T03:06:54.037Z,0.00
2017-12-23T03:07:53.976Z,0.00
2017-12-23T03:08:53.912Z,0.00
2017-12-23T03:09:53.850Z,0.00
2017-12-23T03:10:53.788Z,0.00
2017-12-23T03:11:53.725Z,0.00
2017-12-23T03:12:53.667Z,0.00
2017-12-23T03:13:53.603Z,0.00
2017-12-23T03:14:53.540Z,0.00
2017-12-23T03:15:53.478Z,4.00
2017-12-23T03:16:53.415Z,0.00
2017-12-23T03:17:53.354Z,0.00
2017-12-23T03:18:53.290Z,0.00
2017-12-23T03:19:53.231Z,0.00
2017-12-23T03:20:53.166Z,0.00
2017-12-23T03:21:53.104Z,0.00
2017-12-23T03:22:53.045Z,0.00
2017-12-23T03:23:52.983Z,0.00
2017-12-23T03:24:52.919Z,0.00
2017-12-23T03:25:52.858Z,0.00
2017-12-23T03:26:52.795Z,0.00
2017-12-23T03:27:52.734Z,0.00
2017-12-23T03:28:52.669Z,0.00
2017-12-23T03:29:52.608Z,0.00
2017-12-23T03:30:52.546Z,0.00
2017-12-23T03:31:52.485Z,0.00
2017-12-23T03:32:52.422Z,0.00
2017-12-23T03:33:52.363Z,0.00
2017-12-23T03:34:52.299Z,0.00
2017-12-23T03:35:52.235Z,0.00
2017-12-23T03:36:52.174Z,0.00
2017-12-23T03:37:52.112Z,0.00
2017-12-23T03:38:52.050Z,0.00
2017-12-23T03:39:51.990Z,0.00
2017-12-23T03:40:51.925Z,0.00
2017-12-23T03:41:51.864Z,0.00
2017-12-23T03:42:51.807Z,0.00
2017-12-23T03:43:51.741Z,0.00
2017-12-23T03:44:51.681Z,0.00
2017-12-23T03:45:51.616Z,0.00
2017-12-23T03:46:51.553Z,0.00
2017-12-23T03:47:51.495Z,0.00
2017-12-23T03:48:51.431Z,0.00
2017-12-23T03:49:51.365Z,0.00
2017-12-23T03:50:51.306Z,0.00
2017-12-23T03:51:51.243Z,0.00
2017-12-23T03:52:51.179Z,0.00
2017-12-23T03:53:51.119Z,0.00
2017-12-23T03:54:51.055Z,0.00
2017-12-23T03:55:50.994Z,0.00
2017-12-23T03:56:50.930Z,0.00
2017-12-23T03:57:50.872Z,0.00
2017-12-23T03:58:50.808Z,0.00
2017-12-23T03:59:50.746Z,0.00
2017-12-23T04:00:50.683Z,0.00
2017-12-23T04:01:50.622Z,0.00
2017-12-23T04:02:50.559Z,0.00
2017-12-23T04:03:50.497Z,0.00
2017-12-23T04:04:50.437Z,0.00
2017-12-23T04:05:50.373Z,0.00
2017-12-23T04:06:50.310Z,0.00
2017-12-23T04:07:50.252Z,0.00
2017-12-23T04:08:50.185Z,0.00
2017-12-23T04:09:50.125Z,0.00
2017-12-23T04:10:50.064Z,0.00
2017-12-23T04:11:50.000Z,0.00
2017-12-23T04:12:49.944Z,0.00
2017-12-23T04:13:49.877Z,0.00
2017-12-23T04:14:49.816Z,0.00
2017-12-23T04:15:49.753Z,0.00
2017-12-23T04:16:49.692Z,0.00
2017-12-23T04:17:49.628Z,0.00
2017-12-23T04:18:49.567Z,0.00
2017-12-23T04:19:49.505Z,0.00
2017-12-23T04:20:49.443Z,0.00
2017-12-23T04:21:49.382Z,0.00
2017-12-23T04:22:49.320Z,0.00
2017-12-23T04:23:49.259Z,0.00
2017-12-23T04:24:49.200Z,0.00
2017-12-23T04:25:49.133Z,0.00
2017-12-23T04:26:49.070Z,0.00
2017-12-23T04:27:49.012Z,0.00
2017-12-23T04:28:48.947Z,0.00
2017-12-23T04:29:48.885Z,0.00
2017-12-23T04:30:48.823Z,0.00
2017-12-23T04:31:48.760Z,0.00
2017-12-23T04:32:48.701Z,0.00
2017-12-23T04:33:48.637Z,0.00
2017-12-23T04:34:48.574Z,0.00
2017-12-23T04:35:48.514Z,0.00
2017-12-23T04:36:48.450Z,0.00
2017-12-23T04:37:48.393Z,0.00
2017-12-23T04:38:48.328Z,0.00
2017-12-23T04:39:48.264Z,0.00
2017-12-23T04:40:48.207Z,0.00
2017-12-23T04:41:48.140Z,0.00
2017-12-23T04:42:48.079Z,0.00
2017-12-23T04:43:48.019Z,0.00
2017-12-23T04:44:47.956Z,0.00
2017-12-23T04:45:47.893Z,0.00
2017-12-23T04:46:47.832Z,0.00
2017-12-23T04:47:47.770Z,0.00
2017-12-23T04:48:47.709Z,0.00
2017-12-23T04:49:47.647Z,4.00
2017-12-23T04:50:47.594Z,0.00
2017-12-23T04:51:47.523Z,0.00
2017-12-23T04:52:47.460Z,0.00
2017-12-23T04:53:47.400Z,0.00
2017-12-23T04:54:47.336Z,0.00
2017-12-23T04:55:47.274Z,0.00
2017-12-23T04:56:47.214Z,0.00
2017-12-23T04:57:47.151Z,0.00
2017-12-23T04:58:47.087Z,0.00
2017-12-23T04:59:47.027Z,0.00
2017-12-23T05:00:46.964Z,0.00
2017-12-23T05:01:46.908Z,0.00
2017-12-23T05:02:46.841Z,0.00
2017-12-23T05:03:46.778Z,0.00
2017-12-23T05:04:46.716Z,0.00
2017-12-23T05:05:46.660Z,0.00
2017-12-23T05:06:46.592Z,0.00
2017-12-23T05:07:46.531Z,0.00
2017-12-23T05:08:46.473Z,0.00
2017-12-23T05:09:46.405Z,4.00
2017-12-23T05:10:46.344Z,4.00
2017-12-23T05:11:46.284Z,4.00
2017-12-23T05:12:46.220Z,4.00
2017-12-23T05:13:46.156Z,4.00
2017-12-23T05:14:46.096Z,4.00
2017-12-23T05:15:46.034Z,4.00
2017-12-23T05:16:45.970Z,4.00
2017-12-23T05:17:45.910Z,4.00
2017-12-23T05:18:45.847Z,4.00
2017-12-23T05:19:45.785Z,4.00
2017-12-23T05:20:45.720Z,4.00
2017-12-23T05:21:45.661Z,4.00
2017-12-23T05:22:45.597Z,4.00
2017-12-23T05:23:45.536Z,0.00
2017-12-23T05:24:45.478Z,4.00
2017-12-23T05:25:45.410Z,4.00
2017-12-23T05:26:45.347Z,4.00
2017-12-23T05:27:45.288Z,4.00
2017-12-23T05:28:45.226Z,0.00
2017-12-23T05:29:45.162Z,0.00
2017-12-23T05:30:45.101Z,4.00
2017-12-23T05:31:45.040Z,4.00
2017-12-23T05:32:44.975Z,4.00
2017-12-23T05:33:44.916Z,4.00
2017-12-23T05:34:44.852Z,0.00
2017-12-23T05:35:44.790Z,0.00
2017-12-23T05:36:44.727Z,4.00
2017-12-23T05:37:44.665Z,0.00
2017-12-23T05:38:44.604Z,0.00
2017-12-23T05:39:44.543Z,4.00
2017-12-23T05:40:44.479Z,4.00
2017-12-23T05:41:44.416Z,4.00
2017-12-23T05:42:44.355Z,4.00
2017-12-23T05:43:44.295Z,4.00
2017-12-23T05:44:44.230Z,4.00
2017-12-23T05:45:44.172Z,4.00
2017-12-23T05:46:44.107Z,4.00
2017-12-23T05:47:44.044Z,4.00
2017-12-23T05:48:43.983Z,4.00
2017-12-23T05:49:43.922Z,0.00
2017-12-23T05:50:43.859Z,4.00
2017-12-23T05:51:43.798Z,4.00
2017-12-23T05:52:43.736Z,4.00
2017-12-23T05:53:43.679Z,0.00
2017-12-23T05:54:43.611Z,0.00
2017-12-23T05:55:43.549Z,4.00
2017-12-23T05:56:43.487Z,4.00
2017-12-23T05:57:43.424Z,0.00
2017-12-23T05:58:43.363Z,0.00
2017-12-23T05:59:43.301Z,0.00
2017-12-23T06:00:43.238Z,0.00
2017-12-23T06:01:43.176Z,4.00
2017-12-23T06:02:43.116Z,0.00
2017-12-23T06:03:43.054Z,0.00
2017-12-23T06:04:42.990Z,4.00
2017-12-23T06:05:42.928Z,4.00
2017-12-23T06:06:42.867Z,4.00
2017-12-23T06:07:42.805Z,0.00
2017-12-23T06:08:42.743Z,0.00
2017-12-23T06:09:42.681Z,0.00
2017-12-23T06:10:42.620Z,0.00
2017-12-23T06:11:42.560Z,4.00
2017-12-23T06:12:42.495Z,0.00
2017-12-23T06:13:42.433Z,0.00
2017-12-23T06:14:42.374Z,0.00
2017-12-23T06:15:42.310Z,0.00
2017-12-23T06:16:42.253Z,0.00
2017-12-23T06:17:42.185Z,0.00
2017-12-23T06:18:42.123Z,0.00
2017-12-23T06:19:42.062Z,4.00
2017-12-23T06:20:41.998Z,0.00
2017-12-23T06:21:41.938Z,4.00
2017-12-23T06:22:41.876Z,0.00
2017-12-23T06:23:41.815Z,4.00
2017-12-23T06:24:41.753Z,0.00
2017-12-23T06:25:41.692Z,0.00
2017-12-23T06:26:41.628Z,0.00
2017-12-23T06:27:41.567Z,0.00
2017-12-23T06:28:41.505Z,0.00
2017-12-23T06:29:41.442Z,0.00
2017-12-23T06:30:41.384Z,0.00
2017-12-23T06:31:41.318Z,0.00
2017-12-23T06:32:41.257Z,0.00
2017-12-23T06:33:41.199Z,0.00
2017-12-23T06:34:41.138Z,0.00
2017-12-23T06:35:41.083Z,0.00
2017-12-23T06:36:41.021Z,0.00
2017-12-23T06:37:40.947Z,0.00
2017-12-23T06:38:40.889Z,0.00
2017-12-23T06:39:40.825Z,0.00
2017-12-23T06:40:40.761Z,4.00
2017-12-23T06:41:40.698Z,4.00
2017-12-23T06:42:40.638Z,4.00
2017-12-23T06:43:40.577Z,4.00
2017-12-23T06:44:40.513Z,4.00
2017-12-23T06:45:40.451Z,4.00
2017-12-23T06:46:40.387Z,4.00
2017-12-23T06:47:40.328Z,4.00
2017-12-23T06:48:40.265Z,4.00
2017-12-23T06:49:40.204Z,4.00
2017-12-23T06:50:40.142Z,4.00
2017-12-23T06:51:40.081Z,8.00
2017-12-23T06:52:40.016Z,8.00
2017-12-23T06:53:39.956Z,8.00
2017-12-23T06:54:39.892Z,8.00
2017-12-23T06:55:39.830Z,12.00
2017-12-23T06:56:39.775Z,12.00
2017-12-23T06:57:39.719Z,12.00
2017-12-23T06:58:39.650Z,12.00
2017-12-23T06:59:39.584Z,12.00
2017-12-23T07:00:39.558Z,16.00
2017-12-23T07:01:39.461Z,20.00
2017-12-23T07:02:39.401Z,24.00
2017-12-23T07:03:39.340Z,24.00
2017-12-23T07:04:39.272Z,24.00
2017-12-23T07:05:39.213Z,28.00
2017-12-23T07:06:39.160Z,28.00
2017-12-23T07:07:39.095Z,32.00
2017-12-23T07:08:39.026Z,36.00
2017-12-23T07:09:38.970Z,36.00
2017-12-23T07:10:38.901Z,36.00
2017-12-23T07:11:38.839Z,44.00
2017-12-23T07:12:38.776Z,48.00
2017-12-23T07:13:38.714Z,48.00
2017-12-23T07:14:38.657Z,56.00
2017-12-23T07:15:38.587Z,60.00
2017-12-23T07:16:38.539Z,68.00
2017-12-23T07:17:38.467Z,72.00
2017-12-23T07:18:38.404Z,80.00
2017-12-23T07:19:38.343Z,84.00
2017-12-23T07:20:38.282Z,92.00
2017-12-23T07:21:38.241Z,100.00
2017-12-23T07:22:38.168Z,104.00
2017-12-23T07:23:38.097Z,116.00
2017-12-23T07:24:38.032Z,116.00
2017-12-23T07:25:37.970Z,128.00
2017-12-23T07:26:37.915Z,140.00
2017-12-23T07:27:37.846Z,148.00
2017-12-23T07:28:37.784Z,152.00
2017-12-23T07:29:37.723Z,160.00
2017-12-23T07:30:37.660Z,184.00
2017-12-23T07:31:37.598Z,212.00
2017-12-23T07:32:37.536Z,252.00
2017-12-23T07:33:37.493Z,280.00
2017-12-23T07:34:37.438Z,308.00
2017-12-23T07:35:37.352Z,304.00
2017-12-23T07:36:37.287Z,312.00
2017-12-23T07:37:37.227Z,328.00
2017-12-23T07:38:37.166Z,376.00
2017-12-23T07:39:37.104Z,360.00
2017-12-23T07:40:37.040Z,340.00
2017-12-23T07:41:36.979Z,392.00
2017-12-23T07:42:36.923Z,388.00
2017-12-23T07:43:36.857Z,388.00
2017-12-23T07:44:36.795Z,436.00
2017-12-23T07:45:36.735Z,460.00
2017-12-23T07:46:36.675Z,424.00
2017-12-23T07:47:36.608Z,404.00
2017-12-23T07:48:36.559Z,444.00
2017-12-23T07:49:36.495Z,464.00
2017-12-23T07:50:36.427Z,480.00
2017-12-23T07:51:36.361Z,492.00
2017-12-23T07:52:36.309Z,540.00
2017-12-23T07:53:36.242Z,572.00
2017-12-23T07:54:36.171Z,604.00
2017-12-23T07:55:36.109Z,672.00
2017-12-23T07:56:36.046Z,712.00
2017-12-23T07:57:35.989Z,784.00
2017-12-23T07:58:35.924Z,820.00
2017-12-23T07:59:35.862Z,864.00
2017-12-23T08:00:35.794Z,884.00
2017-12-23T08:01:35.739Z,908.00
2017-12-23T08:02:35.677Z,924.00
2017-12-23T08:03:35.614Z,888.00
2017-12-23T08:04:35.551Z,820.00
2017-12-23T08:05:35.493Z,788.00
2017-12-23T08:06:35.430Z,776.00
2017-12-23T08:07:35.374Z,788.00
2017-12-23T08:08:35.304Z,796.00
2017-12-23T08:09:35.240Z,780.00
2017-12-23T08:10:35.182Z,784.00
2017-12-23T08:11:35.133Z,836.00
2017-12-23T08:12:35.059Z,864.00
2017-12-23T08:13:34.992Z,860.00
2017-12-23T08:14:34.930Z,864.00
2017-12-23T08:15:34.872Z,892.00
2017-12-23T08:16:34.809Z,888.00
2017-12-23T08:17:34.749Z,948.00
2017-12-23T08:18:34.687Z,952.00
2017-12-23T08:19:34.622Z,912.00
2017-12-23T08:20:34.563Z,868.00
2017-12-23T08:21:34.503Z,868.00
2017-12-23T08:22:34.439Z,940.00
2017-12-23T08:23:34.380Z,1032.00
2017-12-23T08:24:34.309Z,1084.00
2017-12-23T08:25:34.255Z,1096.00
2017-12-23T08:26:34.193Z,1124.00
2017-12-23T08:27:34.138Z,1096.00
2017-12-23T08:28:34.070Z,1008.00
2017-12-23T08:29:34.005Z,920.00
2017-12-23T08:30:33.974Z,908.00
2017-12-23T08:31:33.890Z,864.00
2017-12-23T08:32:33.822Z,804.00
2017-12-23T08:33:33.763Z,764.00
2017-12-23T08:34:33.699Z,756.00
2017-12-23T08:35:33.640Z,792.00
2017-12-23T08:36:33.591Z,836.00
2017-12-23T08:37:33.526Z,896.00
2017-12-23T08:38:33.518Z,940.00
2017-12-23T08:39:33.393Z,988.00
2017-12-23T08:40:33.336Z,1076.00
2017-12-23T08:41:33.272Z,1192.00
2017-12-23T08:42:33.209Z,1348.00
2017-12-23T08:43:33.148Z,1424.00
2017-12-23T08:44:33.093Z,1464.00
2017-12-23T08:45:33.035Z,1432.00
2017-12-23T08:46:32.965Z,1332.00
2017-12-23T08:47:32.901Z,1220.00
2017-12-23T08:48:32.843Z,1120.00
2017-12-23T08:49:32.776Z,1112.00
2017-12-23T08:50:32.729Z,1108.00
2017-12-23T08:51:32.657Z,1100.00
2017-12-23T08:52:32.593Z,1060.00
2017-12-23T08:53:32.535Z,1084.00
2017-12-23T08:54:32.476Z,1144.00
2017-12-23T08:55:32.415Z,1228.00
2017-12-23T08:56:32.348Z,1224.00
2017-12-23T08:57:32.305Z,1200.00
2017-12-23T08:58:32.248Z,1204.00
2017-12-23T08:59:32.164Z,1240.00
2017-12-23T09:00:32.102Z,1276.00
2017-12-23T09:01:32.043Z,1344.00
2017-12-23T09:02:31.985Z,1480.00
2017-12-23T09:03:31.919Z,1540.00
2017-12-23T09:04:31.859Z,1524.00
2017-12-23T09:05:31.799Z,1492.00
2017-12-23T09:06:31.738Z,1492.00
2017-12-23T09:07:31.673Z,1524.00
2017-12-23T09:08:31.614Z,1628.00
2017-12-23T09:09:31.556Z,1776.00
2017-12-23T09:10:31.489Z,1876.00
2017-12-23T09:11:31.465Z,1888.00
2017-12-23T09:12:31.367Z,1860.00
2017-12-23T09:13:31.305Z,1860.00
2017-12-23T09:14:31.250Z,1904.00
2017-12-23T09:15:31.197Z,1960.00
2017-12-23T09:16:31.121Z,2040.00
2017-12-23T09:17:31.085Z,2076.00
2017-12-23T09:18:30.995Z,1956.00
2017-12-23T09:19:30.972Z,1968.00
2017-12-23T09:20:30.911Z,1992.00
2017-12-23T09:21:30.815Z,2084.00
2017-12-23T09:22:30.754Z,2192.00
2017-12-23T09:23:30.697Z,2208.00
2017-12-23T09:24:30.635Z,2240.00
2017-12-23T09:25:30.572Z,2332.00
2017-12-23T09:26:30.511Z,2324.00
2017-12-23T09:27:30.449Z,2268.00
2017-12-23T09:28:30.389Z,2272.00
2017-12-23T09:29:30.328Z,2340.00
2017-12-23T09:30:30.266Z,2444.00
2017-12-23T09:31:30.206Z,2696.00
2017-12-23T09:32:30.146Z,2980.00
2017-12-23T09:33:30.086Z,2976.00
2017-12-23T09:34:30.024Z,2916.00
2017-12-23T09:35:29.962Z,2772.00
2017-12-23T09:36:29.900Z,2708.00
2017-12-23T09:37:29.845Z,2804.00
2017-12-23T09:38:29.779Z,2892.00
2017-12-23T09:39:29.717Z,2908.00
2017-12-23T09:40:29.655Z,2992.00
2017-12-23T09:41:29.594Z,3220.00
2017-12-23T09:42:29.533Z,3336.00
2017-12-23T09:43:29.476Z,3472.00
2017-12-23T09:44:29.413Z,3424.00
2017-12-23T09:45:29.349Z,3308.00
2017-12-23T09:46:29.291Z,3192.00
2017-12-23T09:47:29.228Z,3316.00
2017-12-23T09:48:29.167Z,3400.00
2017-12-23T09:49:29.110Z,3336.00
2017-12-23T09:50:29.045Z,3292.00
2017-12-23T09:51:28.986Z,3456.00
2017-12-23T09:52:28.925Z,3420.00
2017-12-23T09:53:28.865Z,3396.00
2017-12-23T09:54:28.803Z,3372.00
2017-12-23T09:55:28.744Z,3248.00
2017-12-23T09:56:28.682Z,2952.00
2017-12-23T09:57:28.621Z,2776.00
2017-12-23T09:58:28.559Z,2772.00
2017-12-23T09:59:28.500Z,2636.00
2017-12-23T10:00:28.439Z,2440.00
2017-12-23T10:01:28.378Z,2364.00
2017-12-23T10:02:28.354Z,2424.00
2017-12-23T10:03:28.256Z,2772.00
2017-12-23T10:04:28.198Z,3136.00
2017-12-23T10:05:28.135Z,3184.00
2017-12-23T10:06:28.074Z,3172.00
2017-12-23T10:07:28.014Z,3308.00
2017-12-23T10:08:27.953Z,3484.00
2017-12-23T10:09:27.899Z,3584.00
2017-12-23T10:10:27.833Z,3520.00
2017-12-23T10:11:27.773Z,3420.00
2017-12-23T10:12:27.713Z,3464.00
2017-12-23T10:13:27.650Z,3464.00
2017-12-23T10:14:27.589Z,3420.00
2017-12-23T10:15:27.528Z,3576.00
2017-12-23T10:16:27.468Z,3684.00
2017-12-23T10:17:27.409Z,3812.00
2017-12-23T10:18:27.345Z,3856.00
2017-12-23T10:19:27.285Z,3752.00
2017-12-23T10:20:27.224Z,3540.00
2017-12-23T10:21:27.165Z,3352.00
2017-12-23T10:22:27.105Z,3180.00
2017-12-23T10:23:27.041Z,2992.00
2017-12-23T10:24:26.983Z,2732.00
2017-12-23T10:25:26.919Z,2524.00
2017-12-23T10:26:26.860Z,2444.00
2017-12-23T10:27:26.803Z,2620.00
2017-12-23T10:28:26.740Z,3120.00
2017-12-23T10:29:26.675Z,3244.00
2017-12-23T10:30:26.618Z,3424.00
2017-12-23T10:31:26.556Z,3164.00
2017-12-23T10:32:26.497Z,3180.00
2017-12-23T10:33:26.436Z,3148.00
2017-12-23T10:34:26.374Z,3332.00
2017-12-23T10:35:26.315Z,3456.00
2017-12-23T10:36:26.253Z,3472.00
2017-12-23T10:37:26.192Z,3380.00
2017-12-23T10:38:26.131Z,3404.00
2017-12-23T10:39:26.071Z,3448.00
2017-12-23T10:40:26.025Z,3492.00
2017-12-23T10:41:25.950Z,3700.00
2017-12-23T10:42:25.891Z,3900.00
2017-12-23T10:43:25.851Z,3884.00
2017-12-23T10:44:25.770Z,3848.00
2017-12-23T10:45:25.706Z,3904.00
2017-12-23T10:46:25.644Z,3932.00
2017-12-23T10:47:25.586Z,3908.00
2017-12-23T10:48:25.521Z,3820.00
2017-12-23T10:49:25.461Z,3764.00
2017-12-23T10:50:25.400Z,3820.00
2017-12-23T10:51:25.341Z,3872.00
2017-12-23T10:52:25.281Z,3992.00
2017-12-23T10:53:25.218Z,4072.00
2017-12-23T10:54:25.159Z,4060.00
2017-12-23T10:55:25.099Z,4056.00
2017-12-23T10:56:25.036Z,4016.00
2017-12-23T10:57:24.977Z,3992.00
2017-12-23T10:58:24.915Z,3992.00
2017-12-23T10:59:24.854Z,3972.00
2017-12-23T11:00:24.792Z,3944.00
2017-12-23T11:01:24.735Z,3880.00
2017-12-23T11:02:24.672Z,3848.00
2017-12-23T11:03:24.611Z,3832.00
2017-12-23T11:04:24.558Z,3820.00
2017-12-23T11:05:24.491Z,3828.00
2017-12-23T11:06:24.431Z,3872.00
2017-12-23T11:07:24.370Z,3988.00
2017-12-23T11:08:24.310Z,4000.00
2017-12-23T11:09:24.249Z,3936.00
2017-12-23T11:10:24.189Z,3824.00
2017-12-23T11:11:24.127Z,3632.00
2017-12-23T11:12:24.065Z,3416.00
2017-12-23T11:13:24.009Z,3200.00
2017-12-23T11:14:23.946Z,3076.00
2017-12-23T11:15:23.886Z,2968.00
2017-12-23T11:16:23.824Z,2868.00
2017-12-23T11:17:23.763Z,2768.00
2017-12-23T11:18:23.704Z,2712.00
2017-12-23T11:19:23.643Z,2696.00
2017-12-23T11:20:23.581Z,2640.00
2017-12-23T11:21:23.523Z,2632.00
2017-12-23T11:22:23.460Z,2668.00
2017-12-23T11:23:23.403Z,2660.00
2017-12-23T11:24:23.339Z,2616.00
2017-12-23T11:25:23.280Z,2568.00
2017-12-23T11:26:23.217Z,2536.00
2017-12-23T11:27:23.158Z,2536.00
2017-12-23T11:28:23.098Z,2564.00
2017-12-23T11:29:23.041Z,2600.00
2017-12-23T11:30:22.977Z,2612.00
2017-12-23T11:31:22.916Z,2612.00
2017-12-23T11:32:22.857Z,2620.00
2017-12-23T11:33:22.800Z,2612.00
2017-12-23T11:34:22.736Z,2572.00
2017-12-23T11:35:22.675Z,2524.00
2017-12-23T11:36:22.614Z,2484.00
2017-12-23T11:37:22.553Z,2468.00
2017-12-23T11:38:22.494Z,2488.00
2017-12-23T11:39:22.432Z,2528.00
2017-12-23T11:40:22.372Z,2608.00
2017-12-23T11:41:22.309Z,2676.00
2017-12-23T11:42:22.248Z,2700.00
2017-12-23T11:43:22.189Z,2720.00
2017-12-23T11:44:22.128Z,2744.00
2017-12-23T11:45:22.068Z,2776.00
2017-12-23T11:46:22.006Z,2800.00
2017-12-23T11:47:21.947Z,2832.00
2017-12-23T11:48:21.889Z,2888.00
2017-12-23T11:49:21.824Z,2944.00
2017-12-23T11:50:21.763Z,2944.00
2017-12-23T11:51:21.704Z,2912.00
2017-12-23T11:52:21.642Z,2880.00
2017-12-23T11:53:21.584Z,2852.00
2017-12-23T11:54:21.532Z,2824.00
2017-12-23T11:55:21.461Z,2788.00
2017-12-23T11:56:21.398Z,2764.00
2017-12-23T11:57:21.341Z,2736.00
2017-12-23T11:58:21.277Z,2692.00
2017-12-23T11:59:21.216Z,2688.00
2017-12-23T12:00:21.158Z,2764.00
2017-12-23T12:01:21.094Z,2880.00
2017-12-23T12:02:21.034Z,2952.00
2017-12-23T12:03:20.974Z,2960.00
2017-12-23T12:04:20.982Z,2924.00
2017-12-23T12:05:20.853Z,2860.00
2017-12-23T12:06:20.792Z,2820.00
2017-12-23T12:07:20.732Z,2812.00
2017-12-23T12:08:20.670Z,2828.00
2017-12-23T12:09:20.610Z,2836.00
2017-12-23T12:10:20.553Z,2836.00
2017-12-23T12:11:20.488Z,2836.00
2017-12-23T12:12:20.428Z,2812.00
2017-12-23T12:13:20.368Z,2748.00
2017-12-23T12:14:20.315Z,2672.00
2017-12-23T12:15:20.253Z,2612.00
2017-12-23T12:16:20.187Z,2584.00
2017-12-23T12:17:20.127Z,2596.00
2017-12-23T12:18:20.065Z,2624.00
2017-12-23T12:19:20.007Z,2636.00
2017-12-23T12:20:19.944Z,2612.00
2017-12-23T12:21:19.884Z,2560.00
2017-12-23T12:22:19.831Z,2500.00
2017-12-23T12:23:19.764Z,2432.00
2017-12-23T12:24:19.702Z,2396.00
2017-12-23T12:25:19.644Z,2388.00
2017-12-23T12:26:19.609Z,2384.00
2017-12-23T12:27:19.528Z,2384.00
2017-12-23T12:28:19.459Z,2388.00
2017-12-23T12:29:19.400Z,2420.00
2017-12-23T12:30:19.339Z,2452.00
2017-12-23T12:31:19.281Z,2504.00
2017-12-23T12:32:19.219Z,2552.00
2017-12-23T12:33:19.157Z,2576.00
2017-12-23T12:34:19.098Z,2576.00
2017-12-23T12:35:19.038Z,2564.00
2017-12-23T12:36:18.976Z,2540.00
2017-12-23T12:37:18.913Z,2496.00
2017-12-23T12:38:18.855Z,2460.00
2017-12-23T12:39:18.794Z,2460.00
2017-12-23T12:40:18.740Z,2492.00
2017-12-23T12:41:18.675Z,2548.00
2017-12-23T12:42:18.614Z,2592.00
2017-12-23T12:43:18.552Z,2668.00
2017-12-23T12:44:18.490Z,2724.00
2017-12-23T12:45:18.432Z,2752.00
2017-12-23T12:46:18.371Z,2776.00